sensor_id;sensor_type;location;lat;lon;timestamp;pressure;altitude;pressure_sealevel;temperature;humidity
76808;BME280;65758;45.458;11.062;2024-02-23T00:02:13;99759.59;;;10.60;80.38
76808;BME280;65758;45.458;11.062;2024-02-23T00:04:40;99753.84;;;10.60;79.76
76808;BME280;65758;45.458;11.062;2024-02-23T00:07:08;99749.16;;;10.55;79.57
76808;BME280;65758;45.458;11.062;2024-02-23T00:09:35;99742.11;;;10.51;79.67
76808;BME280;65758;45.458;11.062;2024-02-23T00:12:03;99735.14;;;10.47;79.78
76808;BME280;65758;45.458;11.062;2024-02-23T00:14:30;99724.02;;;10.45;79.62
76808;BME280;65758;45.458;11.062;2024-02-23T00:16:58;99708.54;;;10.40;79.50
76808;BME280;65758;45.458;11.062;2024-02-23T00:19:25;99707.05;;;10.36;79.40
76808;BME280;65758;45.458;11.062;2024-02-23T00:21:52;99707.42;;;10.33;79.40
76808;BME280;65758;45.458;11.062;2024-02-23T00:24:19;99707.88;;;10.30;79.48
76808;BME280;65758;45.458;11.062;2024-02-23T00:26:49;99701.17;;;10.27;79.88
76808;BME280;65758;45.458;11.062;2024-02-23T00:29:18;99697.55;;;10.27;79.58
76808;BME280;65758;45.458;11.062;2024-02-23T00:31:45;99693.70;;;10.25;79.38
76808;BME280;65758;45.458;11.062;2024-02-23T00:34:15;99688.44;;;10.25;79.49
76808;BME280;65758;45.458;11.062;2024-02-23T00:36:43;99680.13;;;10.25;79.38
76808;BME280;65758;45.458;11.062;2024-02-23T00:39:11;99682.25;;;10.24;79.49
76808;BME280;65758;45.458;11.062;2024-02-23T00:41:38;99677.38;;;10.23;79.26
76808;BME280;65758;45.458;11.062;2024-02-23T00:44:05;99676.42;;;10.22;79.53
76808;BME280;65758;45.458;11.062;2024-02-23T00:46:32;99678.80;;;10.23;79.34
76808;BME280;65758;45.458;11.062;2024-02-23T00:49:00;99668.85;;;10.22;78.98
76808;BME280;65758;45.458;11.062;2024-02-23T00:51:29;99663.02;;;10.21;79.39
76808;BME280;65758;45.458;11.062;2024-02-23T00:53:56;99664.86;;;10.21;79.35
76808;BME280;65758;45.458;11.062;2024-02-23T00:56:23;99662.66;;;10.20;79.10
76808;BME280;65758;45.458;11.062;2024-02-23T00:58:58;99649.05;;;10.19;79.52
76808;BME280;65758;45.458;11.062;2024-02-23T01:01:25;99648.77;;;10.18;79.55
76808;BME280;65758;45.458;11.062;2024-02-23T01:03:53;99641.14;;;10.17;79.65
76808;BME280;65758;45.458;11.062;2024-02-23T01:06:20;99645.74;;;10.18;79.66
76808;BME280;65758;45.458;11.062;2024-02-23T01:08:47;99631.35;;;10.17;79.57
76808;BME280;65758;45.458;11.062;2024-02-23T01:11:14;99623.04;;;10.14;79.47
76808;BME280;65758;45.458;11.062;2024-02-23T01:13:41;99616.69;;;10.10;79.65
76808;BME280;65758;45.458;11.062;2024-02-23T01:16:08;99610.33;;;10.09;79.66
76808;BME280;65758;45.458;11.062;2024-02-23T01:18:35;99608.88;;;10.08;79.50
76808;BME280;65758;45.458;11.062;2024-02-23T01:21:02;99608.05;;;10.07;79.76
76808;BME280;65758;45.458;11.062;2024-02-23T01:23:29;99600.98;;;10.06;79.62
76808;BME280;65758;45.458;11.062;2024-02-23T01:25:56;99592.23;;;10.06;79.51
76808;BME280;65758;45.458;11.062;2024-02-23T01:28:25;99582.23;;;10.06;79.29
76808;BME280;65758;45.458;11.062;2024-02-23T01:30:52;99570.06;;;10.07;79.41
76808;BME280;65758;45.458;11.062;2024-02-23T01:33:19;99552.10;;;10.08;78.97
76808;BME280;65758;45.458;11.062;2024-02-23T01:35:45;99551.45;;;10.09;78.94
76808;BME280;65758;45.458;11.062;2024-02-23T01:38:12;99556.91;;;10.09;78.81
76808;BME280;65758;45.458;11.062;2024-02-23T01:40:46;99550.09;;;10.10;78.48
76808;BME280;65758;45.458;11.062;2024-02-23T01:43:14;99543.97;;;10.09;78.57
76808;BME280;65758;45.458;11.062;2024-02-23T01:45:40;99539.42;;;10.09;78.57
76808;BME280;65758;45.458;11.062;2024-02-23T01:48:07;99538.66;;;10.09;78.77
76808;BME280;65758;45.458;11.062;2024-02-23T01:50:35;99540.92;;;10.10;78.78
76808;BME280;65758;45.458;11.062;2024-02-23T01:53:03;99522.30;;;10.12;78.28
76808;BME280;65758;45.458;11.062;2024-02-23T01:55:31;99513.60;;;10.11;78.12
76808;BME280;65758;45.458;11.062;2024-02-23T01:58:04;99510.42;;;10.11;78.32
76808;BME280;65758;45.458;11.062;2024-02-23T02:00:35;99511.31;;;10.12;78.10
76808;BME280;65758;45.458;11.062;2024-02-23T02:03:03;99502.30;;;10.14;78.20
76808;BME280;65758;45.458;11.062;2024-02-23T02:05:36;99498.25;;;10.15;77.99
76808;BME280;65758;45.458;11.062;2024-02-23T02:08:04;99500.63;;;10.17;78.07
76808;BME280;65758;45.458;11.062;2024-02-23T02:10:31;99506.67;;;10.19;78.43
76808;BME280;65758;45.458;11.062;2024-02-23T02:13:03;99498.45;;;10.21;78.44
76808;BME280;65758;45.458;11.062;2024-02-23T02:15:31;99501.73;;;10.22;78.11
76808;BME280;65758;45.458;11.062;2024-02-23T02:17:57;99499.55;;;10.21;78.22
76808;BME280;65758;45.458;11.062;2024-02-23T02:20:25;99503.19;;;10.20;78.19
76808;BME280;65758;45.458;11.062;2024-02-23T02:22:55;99499.84;;;10.19;78.05
76808;BME280;65758;45.458;11.062;2024-02-23T02:25:22;99497.98;;;10.19;78.17
76808;BME280;65758;45.458;11.062;2024-02-23T02:27:49;99500.17;;;10.19;78.10
76808;BME280;65758;45.458;11.062;2024-02-23T02:30:16;99486.34;;;10.19;78.48
76808;BME280;65758;45.458;11.062;2024-02-23T02:32:43;99488.58;;;10.18;77.97
76808;BME280;65758;45.458;11.062;2024-02-23T02:35:11;99485.73;;;10.18;78.15
76808;BME280;65758;45.458;11.062;2024-02-23T02:37:39;99492.33;;;10.18;78.08
76808;BME280;65758;45.458;11.062;2024-02-23T02:40:06;99486.96;;;10.16;78.23
76808;BME280;65758;45.458;11.062;2024-02-23T02:42:33;99484.45;;;10.16;77.82
76808;BME280;65758;45.458;11.062;2024-02-23T02:45:01;99477.34;;;10.17;77.85
76808;BME280;65758;45.458;11.062;2024-02-23T02:47:28;99470.54;;;10.18;77.88
76808;BME280;65758;45.458;11.062;2024-02-23T02:49:55;99456.93;;;10.19;77.72
76808;BME280;65758;45.458;11.062;2024-02-23T02:52:22;99441.52;;;10.19;77.83
76808;BME280;65758;45.458;11.062;2024-02-23T02:54:50;99439.60;;;10.19;78.05
76808;BME280;65758;45.458;11.062;2024-02-23T02:57:17;99434.78;;;10.19;77.83
76808;BME280;65758;45.458;11.062;2024-02-23T02:59:44;99426.80;;;10.19;77.71
76808;BME280;65758;45.458;11.062;2024-02-23T03:02:13;99417.95;;;10.19;77.57
76808;BME280;65758;45.458;11.062;2024-02-23T03:04:47;99423.80;;;10.20;77.64
76808;BME280;65758;45.458;11.062;2024-02-23T03:07:15;99419.91;;;10.20;77.37
76808;BME280;65758;45.458;11.062;2024-02-23T03:09:42;99405.48;;;10.19;77.54
76808;BME280;65758;45.458;11.062;2024-02-23T03:12:10;99398.70;;;10.20;77.25
76808;BME280;65758;45.458;11.062;2024-02-23T03:14:37;99397.48;;;10.22;77.06
76808;BME280;65758;45.458;11.062;2024-02-23T03:17:07;99395.08;;;10.24;77.40
76808;BME280;65758;45.458;11.062;2024-02-23T03:19:37;99387.55;;;10.24;77.15
76808;BME280;65758;45.458;11.062;2024-02-23T03:22:05;99382.23;;;10.23;77.27
76808;BME280;65758;45.458;11.062;2024-02-23T03:24:32;99376.76;;;10.22;77.28
76808;BME280;65758;45.458;11.062;2024-02-23T03:26:59;99377.19;;;10.22;77.35
76808;BME280;65758;45.458;11.062;2024-02-23T03:29:26;99381.89;;;10.22;77.48
76808;BME280;65758;45.458;11.062;2024-02-23T03:31:56;99383.77;;;10.24;77.31
76808;BME280;65758;45.458;11.062;2024-02-23T03:34:24;99390.71;;;10.25;77.54
76808;BME280;65758;45.458;11.062;2024-02-23T03:36:51;99388.15;;;10.25;77.30
76808;BME280;65758;45.458;11.062;2024-02-23T03:39:18;99384.23;;;10.25;77.17
76808;BME280;65758;45.458;11.062;2024-02-23T03:41:44;99383.96;;;10.28;77.27
76808;BME280;65758;45.458;11.062;2024-02-23T03:44:11;99375.69;;;10.30;77.19
76808;BME280;65758;45.458;11.062;2024-02-23T03:46:38;99375.31;;;10.31;77.35
76808;BME280;65758;45.458;11.062;2024-02-23T03:49:05;99366.48;;;10.34;77.15
76808;BME280;65758;45.458;11.062;2024-02-23T03:51:32;99358.05;;;10.37;77.00
76808;BME280;65758;45.458;11.062;2024-02-23T03:54:01;99353.74;;;10.40;76.90
76808;BME280;65758;45.458;11.062;2024-02-23T03:56:29;99350.63;;;10.45;76.88
76808;BME280;65758;45.458;11.062;2024-02-23T03:58:56;99343.96;;;10.47;76.73
76808;BME280;65758;45.458;11.062;2024-02-23T04:01:23;99334.69;;;10.49;77.09
76808;BME280;65758;45.458;11.062;2024-02-23T04:03:51;99333.33;;;10.51;76.54
76808;BME280;65758;45.458;11.062;2024-02-23T04:06:17;99321.59;;;10.54;76.39
76808;BME280;65758;45.458;11.062;2024-02-23T04:08:44;99320.91;;;10.59;76.04
76808;BME280;65758;45.458;11.062;2024-02-23T04:11:15;99323.74;;;10.63;75.82
76808;BME280;65758;45.458;11.062;2024-02-23T04:13:41;99318.09;;;10.61;76.35
76808;BME280;65758;45.458;11.062;2024-02-23T04:16:08;99315.93;;;10.58;76.06
76808;BME280;65758;45.458;11.062;2024-02-23T04:18:35;99324.00;;;10.54;76.86
76808;BME280;65758;45.458;11.062;2024-02-23T04:21:02;99326.02;;;10.52;77.11
76808;BME280;65758;45.458;11.062;2024-02-23T04:23:29;99323.42;;;10.51;77.32
76808;BME280;65758;45.458;11.062;2024-02-23T04:25:56;99324.52;;;10.50;77.43
76808;BME280;65758;45.458;11.062;2024-02-23T04:28:22;99316.31;;;10.50;77.40
76808;BME280;65758;45.458;11.062;2024-02-23T04:30:49;99304.82;;;10.50;77.37
76808;BME280;65758;45.458;11.062;2024-02-23T04:33:16;99310.85;;;10.51;77.35
76808;BME280;65758;45.458;11.062;2024-02-23T04:35:43;99317.81;;;10.52;77.30
76808;BME280;65758;45.458;11.062;2024-02-23T04:38:11;99313.02;;;10.53;77.39
76808;BME280;65758;45.458;11.062;2024-02-23T04:40:38;99310.34;;;10.55;77.05
76808;BME280;65758;45.458;11.062;2024-02-23T04:43:04;99301.94;;;10.58;76.88
76808;BME280;65758;45.458;11.062;2024-02-23T04:45:31;99295.00;;;10.60;76.76
76808;BME280;65758;45.458;11.062;2024-02-23T04:47:58;99285.99;;;10.63;76.51
76808;BME280;65758;45.458;11.062;2024-02-23T04:50:25;99287.70;;;10.66;76.68
76808;BME280;65758;45.458;11.062;2024-02-23T04:52:52;99289.21;;;10.69;76.24
76808;BME280;65758;45.458;11.062;2024-02-23T04:55:18;99281.02;;;10.71;76.17
76808;BME280;65758;45.458;11.062;2024-02-23T04:57:45;99269.97;;;10.72;75.94
76808;BME280;65758;45.458;11.062;2024-02-23T05:00:12;99274.52;;;10.72;76.05
76808;BME280;65758;45.458;11.062;2024-02-23T05:02:39;99271.34;;;10.71;75.81
76808;BME280;65758;45.458;11.062;2024-02-23T05:05:06;99259.58;;;10.71;76.05
76808;BME280;65758;45.458;11.062;2024-02-23T05:07:34;99245.25;;;10.72;76.11
76808;BME280;65758;45.458;11.062;2024-02-23T05:10:01;99235.56;;;10.73;75.65
76808;BME280;65758;45.458;11.062;2024-02-23T05:12:28;99230.47;;;10.74;75.98
76808;BME280;65758;45.458;11.062;2024-02-23T05:14:55;99231.81;;;10.77;75.11
76808;BME280;65758;45.458;11.062;2024-02-23T05:17:21;99230.80;;;10.80;75.17
76808;BME280;65758;45.458;11.062;2024-02-23T05:19:50;99228.71;;;10.82;75.08
76808;BME280;65758;45.458;11.062;2024-02-23T05:22:17;99223.45;;;10.84;74.76
76808;BME280;65758;45.458;11.062;2024-02-23T05:24:44;99206.73;;;10.86;74.67
76808;BME280;65758;45.458;11.062;2024-02-23T05:27:11;99209.05;;;10.87;74.52
76808;BME280;65758;45.458;11.062;2024-02-23T05:29:38;99199.98;;;10.91;74.51
76808;BME280;65758;45.458;11.062;2024-02-23T05:32:05;99211.97;;;10.93;74.30
76808;BME280;65758;45.458;11.062;2024-02-23T05:34:32;99201.05;;;10.95;73.92
76808;BME280;65758;45.458;11.062;2024-02-23T05:36:59;99189.21;;;10.97;74.22
76808;BME280;65758;45.458;11.062;2024-02-23T05:39:26;99191.80;;;10.98;73.76
76808;BME280;65758;45.458;11.062;2024-02-23T05:41:52;99191.48;;;10.99;74.19
76808;BME280;65758;45.458;11.062;2024-02-23T05:44:19;99180.48;;;11.00;73.76
76808;BME280;65758;45.458;11.062;2024-02-23T05:46:47;99180.48;;;11.02;73.67
76808;BME280;65758;45.458;11.062;2024-02-23T05:49:13;99180.22;;;11.04;73.92
76808;BME280;65758;45.458;11.062;2024-02-23T05:51:40;99185.64;;;11.05;74.36
76808;BME280;65758;45.458;11.062;2024-02-23T05:54:08;99198.29;;;11.06;74.04
76808;BME280;65758;45.458;11.062;2024-02-23T05:56:34;99194.08;;;11.06;73.48
76808;BME280;65758;45.458;11.062;2024-02-23T05:59:01;99184.13;;;11.07;73.74
76808;BME280;65758;45.458;11.062;2024-02-23T06:01:29;99171.64;;;11.07;73.68
76808;BME280;65758;45.458;11.062;2024-02-23T06:03:56;99172.45;;;11.09;73.46
76808;BME280;65758;45.458;11.062;2024-02-23T06:06:22;99173.89;;;11.10;73.91
76808;BME280;65758;45.458;11.062;2024-02-23T06:08:50;99175.38;;;11.11;73.73
76808;BME280;65758;45.458;11.062;2024-02-23T06:11:17;99183.09;;;11.12;74.03
76808;BME280;65758;45.458;11.062;2024-02-23T06:13:44;99182.02;;;11.14;74.10
76808;BME280;65758;45.458;11.062;2024-02-23T06:16:11;99184.20;;;11.15;74.10
76808;BME280;65758;45.458;11.062;2024-02-23T06:18:38;99184.27;;;11.15;74.14
76808;BME280;65758;45.458;11.062;2024-02-23T06:21:15;99184.21;;;11.15;74.39
76808;BME280;65758;45.458;11.062;2024-02-23T06:23:42;99174.50;;;11.16;74.21
76808;BME280;65758;45.458;11.062;2024-02-23T06:26:09;99187.92;;;11.16;74.32
76808;BME280;65758;45.458;11.062;2024-02-23T06:28:37;99192.09;;;11.16;74.10
76808;BME280;65758;45.458;11.062;2024-02-23T06:31:05;99194.94;;;11.17;74.20
76808;BME280;65758;45.458;11.062;2024-02-23T06:33:32;99197.02;;;11.17;74.58
76808;BME280;65758;45.458;11.062;2024-02-23T06:36:00;99202.81;;;11.16;74.69
76808;BME280;65758;45.458;11.062;2024-02-23T06:38:27;99216.02;;;11.16;74.92
76808;BME280;65758;45.458;11.062;2024-02-23T06:40:56;99213.94;;;11.15;74.95
76808;BME280;65758;45.458;11.062;2024-02-23T06:43:23;99211.15;;;11.15;75.30
76808;BME280;65758;45.458;11.062;2024-02-23T06:45:50;99218.38;;;11.15;75.36
76808;BME280;65758;45.458;11.062;2024-02-23T06:48:18;99220.73;;;11.14;75.71
76808;BME280;65758;45.458;11.062;2024-02-23T06:50:45;99230.84;;;11.14;75.58
76808;BME280;65758;45.458;11.062;2024-02-23T06:53:12;99231.94;;;11.14;75.83
76808;BME280;65758;45.458;11.062;2024-02-23T06:55:39;99226.04;;;11.14;76.04
76808;BME280;65758;45.458;11.062;2024-02-23T06:58:06;99227.83;;;11.13;76.00
76808;BME280;65758;45.458;11.062;2024-02-23T07:00:34;99223.00;;;11.12;76.35
76808;BME280;65758;45.458;11.062;2024-02-23T07:03:01;99225.19;;;11.12;76.39
76808;BME280;65758;45.458;11.062;2024-02-23T07:05:31;99227.33;;;11.13;76.97
76808;BME280;65758;45.458;11.062;2024-02-23T07:07:59;99225.08;;;11.12;77.25
76808;BME280;65758;45.458;11.062;2024-02-23T07:10:26;99213.69;;;11.10;76.73
76808;BME280;65758;45.458;11.062;2024-02-23T07:12:53;99211.66;;;11.07;77.41
76808;BME280;65758;45.458;11.062;2024-02-23T07:15:21;99202.94;;;11.04;77.46
76808;BME280;65758;45.458;11.062;2024-02-23T07:17:48;99199.42;;;11.02;77.75
76808;BME280;65758;45.458;11.062;2024-02-23T07:20:15;99209.27;;;11.01;77.33
76808;BME280;65758;45.458;11.062;2024-02-23T07:22:46;99214.62;;;11.00;77.59
76808;BME280;65758;45.458;11.062;2024-02-23T07:25:19;99212.10;;;10.97;77.91
76808;BME280;65758;45.458;11.062;2024-02-23T07:27:48;99210.41;;;10.96;77.89
76808;BME280;65758;45.458;11.062;2024-02-23T07:30:18;99200.43;;;10.95;78.05
76808;BME280;65758;45.458;11.062;2024-02-23T07:32:45;99193.59;;;10.94;78.36
76808;BME280;65758;45.458;11.062;2024-02-23T07:35:19;99196.64;;;10.92;78.21
76808;BME280;65758;45.458;11.062;2024-02-23T07:37:47;99198.89;;;10.92;78.32
76808;BME280;65758;45.458;11.062;2024-02-23T07:40:14;99203.60;;;10.91;78.65
76808;BME280;65758;45.458;11.062;2024-02-23T07:42:45;99199.70;;;10.91;78.85
76808;BME280;65758;45.458;11.062;2024-02-23T07:45:12;99202.71;;;10.90;78.87
76808;BME280;65758;45.458;11.062;2024-02-23T07:47:39;99199.71;;;10.90;78.63
76808;BME280;65758;45.458;11.062;2024-02-23T07:50:06;99199.96;;;10.89;78.86
76808;BME280;65758;45.458;11.062;2024-02-23T07:52:34;99198.11;;;10.88;78.69
76808;BME280;65758;45.458;11.062;2024-02-23T07:55:01;99189.73;;;10.87;78.72
76808;BME280;65758;45.458;11.062;2024-02-23T07:57:29;99185.41;;;10.87;78.97
76808;BME280;65758;45.458;11.062;2024-02-23T07:59:58;99188.23;;;10.86;78.89
76808;BME280;65758;45.458;11.062;2024-02-23T08:02:25;99194.59;;;10.87;79.54
76808;BME280;65758;45.458;11.062;2024-02-23T08:04:52;99192.18;;;10.87;79.25
76808;BME280;65758;45.458;11.062;2024-02-23T08:07:19;99186.23;;;10.87;79.18
76808;BME280;65758;45.458;11.062;2024-02-23T08:09:46;99181.69;;;10.87;79.32
76808;BME280;65758;45.458;11.062;2024-02-23T08:12:13;99177.15;;;10.88;79.62
76808;BME280;65758;45.458;11.062;2024-02-23T08:14:41;99180.64;;;10.89;79.63
76808;BME280;65758;45.458;11.062;2024-02-23T08:17:10;99180.81;;;10.90;79.58
76808;BME280;65758;45.458;11.062;2024-02-23T08:19:37;99183.45;;;10.92;79.41
76808;BME280;65758;45.458;11.062;2024-02-23T08:22:04;99182.96;;;10.92;79.35
76808;BME280;65758;45.458;11.062;2024-02-23T08:24:31;99181.59;;;10.93;79.20
76808;BME280;65758;45.458;11.062;2024-02-23T08:26:58;99182.77;;;10.95;79.87
76808;BME280;65758;45.458;11.062;2024-02-23T08:29:26;99179.52;;;10.96;79.62
76808;BME280;65758;45.458;11.062;2024-02-23T08:31:53;99177.77;;;10.97;79.47
76808;BME280;65758;45.458;11.062;2024-02-23T08:34:20;99181.36;;;10.98;79.64
76808;BME280;65758;45.458;11.062;2024-02-23T08:36:47;99178.23;;;10.98;79.93
76808;BME280;65758;45.458;11.062;2024-02-23T08:39:14;99173.95;;;11.00;80.00
76808;BME280;65758;45.458;11.062;2024-02-23T08:41:41;99177.02;;;11.01;80.04
76808;BME280;65758;45.458;11.062;2024-02-23T08:44:08;99177.98;;;11.03;79.95
76808;BME280;65758;45.458;11.062;2024-02-23T08:46:35;99175.98;;;11.04;79.65
76808;BME280;65758;45.458;11.062;2024-02-23T08:49:01;99175.52;;;11.06;79.86
76808;BME280;65758;45.458;11.062;2024-02-23T08:51:29;99175.36;;;11.07;80.07
76808;BME280;65758;45.458;11.062;2024-02-23T08:53:55;99174.70;;;11.07;80.02
76808;BME280;65758;45.458;11.062;2024-02-23T08:56:26;99177.60;;;11.08;80.28
76808;BME280;65758;45.458;11.062;2024-02-23T08:58:53;99178.64;;;11.09;80.00
76808;BME280;65758;45.458;11.062;2024-02-23T09:01:21;99185.34;;;11.10;80.02
76808;BME280;65758;45.458;11.062;2024-02-23T09:03:48;99184.25;;;11.11;79.43
76808;BME280;65758;45.458;11.062;2024-02-23T09:06:14;99185.66;;;11.12;79.59
76808;BME280;65758;45.458;11.062;2024-02-23T09:08:42;99181.52;;;11.16;79.19
76808;BME280;65758;45.458;11.062;2024-02-23T09:11:08;99185.58;;;11.20;79.45
76808;BME280;65758;45.458;11.062;2024-02-23T09:13:38;99188.13;;;11.23;79.73
76808;BME280;65758;45.458;11.062;2024-02-23T09:16:06;99183.99;;;11.24;79.77
76808;BME280;65758;45.458;11.062;2024-02-23T09:18:34;99186.88;;;11.26;80.47
76808;BME280;65758;45.458;11.062;2024-02-23T09:21:01;99183.46;;;11.28;80.05
76808;BME280;65758;45.458;11.062;2024-02-23T09:23:28;99185.94;;;11.28;79.98
76808;BME280;65758;45.458;11.062;2024-02-23T09:25:55;99194.10;;;11.27;80.14
76808;BME280;65758;45.458;11.062;2024-02-23T09:28:22;99194.36;;;11.25;79.96
76808;BME280;65758;45.458;11.062;2024-02-23T09:30:49;99196.06;;;11.25;80.01
76808;BME280;65758;45.458;11.062;2024-02-23T09:33:16;99200.02;;;11.26;80.44
76808;BME280;65758;45.458;11.062;2024-02-23T09:35:42;99204.06;;;11.27;80.37
76808;BME280;65758;45.458;11.062;2024-02-23T09:38:09;99202.69;;;11.28;80.57
76808;BME280;65758;45.458;11.062;2024-02-23T09:40:36;99204.19;;;11.30;81.21
76808;BME280;65758;45.458;11.062;2024-02-23T09:43:07;99201.58;;;11.33;80.83
76808;BME280;65758;45.458;11.062;2024-02-23T09:45:34;99200.05;;;11.34;81.11
76808;BME280;65758;45.458;11.062;2024-02-23T09:48:02;99194.27;;;11.36;81.21
76808;BME280;65758;45.458;11.062;2024-02-23T09:50:30;99191.60;;;11.38;81.05
76808;BME280;65758;45.458;11.062;2024-02-23T09:52:58;99186.79;;;11.40;80.98
76808;BME280;65758;45.458;11.062;2024-02-23T09:55:26;99187.34;;;11.43;80.70
76808;BME280;65758;45.458;11.062;2024-02-23T09:57:55;99190.37;;;11.44;80.56
76808;BME280;65758;45.458;11.062;2024-02-23T10:00:24;99190.92;;;11.45;80.42
76808;BME280;65758;45.458;11.062;2024-02-23T10:02:53;99179.25;;;11.45;80.53
76808;BME280;65758;45.458;11.062;2024-02-23T10:05:23;99177.72;;;11.44;80.78
76808;BME280;65758;45.458;11.062;2024-02-23T10:08:01;99189.38;;;11.46;80.82
76808;BME280;65758;45.458;11.062;2024-02-23T10:10:32;99191.95;;;11.47;81.06
76808;BME280;65758;45.458;11.062;2024-02-23T10:13:00;99195.31;;;11.49;80.63
76808;BME280;65758;45.458;11.062;2024-02-23T10:15:30;99183.80;;;11.49;80.70
76808;BME280;65758;45.458;11.062;2024-02-23T10:18:00;99188.90;;;11.48;80.67
76808;BME280;65758;45.458;11.062;2024-02-23T10:20:27;99185.55;;;11.48;80.42
76808;BME280;65758;45.458;11.062;2024-02-23T10:22:54;99183.54;;;11.49;80.27
76808;BME280;65758;45.458;11.062;2024-02-23T10:25:22;99182.38;;;11.49;80.72
76808;BME280;65758;45.458;11.062;2024-02-23T10:27:49;99174.86;;;11.50;80.94
76808;BME280;65758;45.458;11.062;2024-02-23T10:30:15;99178.12;;;11.53;80.72
76808;BME280;65758;45.458;11.062;2024-02-23T10:32:42;99178.27;;;11.54;80.65
76808;BME280;65758;45.458;11.062;2024-02-23T10:35:15;99182.71;;;11.56;80.79
76808;BME280;65758;45.458;11.062;2024-02-23T10:37:49;99189.13;;;11.57;80.74
76808;BME280;65758;45.458;11.062;2024-02-23T10:40:19;99196.30;;;11.57;80.82
76808;BME280;65758;45.458;11.062;2024-02-23T10:42:47;99187.04;;;11.58;80.90
76808;BME280;65758;45.458;11.062;2024-02-23T10:45:18;99184.25;;;11.58;81.00
76808;BME280;65758;45.458;11.062;2024-02-23T10:47:46;99189.58;;;11.61;81.10
76808;BME280;65758;45.458;11.062;2024-02-23T10:50:14;99196.10;;;11.65;81.25
76808;BME280;65758;45.458;11.062;2024-02-23T10:52:43;99194.46;;;11.66;81.11
76808;BME280;65758;45.458;11.062;2024-02-23T10:55:10;99188.33;;;11.68;81.34
76808;BME280;65758;45.458;11.062;2024-02-23T10:57:37;99183.97;;;11.71;81.13
76808;BME280;65758;45.458;11.062;2024-02-23T11:00:08;99185.68;;;11.73;81.96
76808;BME280;65758;45.458;11.062;2024-02-23T11:02:46;99180.09;;;11.76;81.90
76808;BME280;65758;45.458;11.062;2024-02-23T11:05:16;99173.41;;;11.79;82.03
76808;BME280;65758;45.458;11.062;2024-02-23T11:07:46;99173.14;;;11.81;81.38
76808;BME280;65758;45.458;11.062;2024-02-23T11:10:16;99179.39;;;11.82;81.70
76808;BME280;65758;45.458;11.062;2024-02-23T11:12:43;99182.95;;;11.83;81.36
76808;BME280;65758;45.458;11.062;2024-02-23T11:15:29;99184.60;;;11.84;81.74
76808;BME280;65758;45.458;11.062;2024-02-23T11:17:56;99183.05;;;11.85;81.73
76808;BME280;65758;45.458;11.062;2024-02-23T11:20:23;99172.98;;;11.86;81.70
76808;BME280;65758;45.458;11.062;2024-02-23T11:22:56;99170.73;;;11.90;82.04
76808;BME280;65758;45.458;11.062;2024-02-23T11:25:29;99166.88;;;11.92;81.40
76808;BME280;65758;45.458;11.062;2024-02-23T11:27:56;99163.33;;;11.93;81.92
76808;BME280;65758;45.458;11.062;2024-02-23T11:30:26;99171.39;;;11.97;81.90
76808;BME280;65758;45.458;11.062;2024-02-23T11:32:59;99178.84;;;12.01;81.72
76808;BME280;65758;45.458;11.062;2024-02-23T11:35:27;99168.97;;;12.04;81.98
76808;BME280;65758;45.458;11.062;2024-02-23T11:37:56;99172.32;;;12.06;82.19
76808;BME280;65758;45.458;11.062;2024-02-23T11:40:26;99172.92;;;12.09;81.98
76808;BME280;65758;45.458;11.062;2024-02-23T11:42:55;99163.70;;;12.12;82.13
76808;BME280;65758;45.458;11.062;2024-02-23T11:45:23;99157.34;;;12.16;82.32
76808;BME280;65758;45.458;11.062;2024-02-23T11:47:51;99155.13;;;12.22;82.40
76808;BME280;65758;45.458;11.062;2024-02-23T11:50:19;99147.29;;;12.27;82.37
76808;BME280;65758;45.458;11.062;2024-02-23T11:52:47;99142.56;;;12.30;82.45
76808;BME280;65758;45.458;11.062;2024-02-23T11:55:21;99142.73;;;12.32;82.14
76808;BME280;65758;45.458;11.062;2024-02-23T11:57:50;99130.00;;;12.34;82.42
76808;BME280;65758;45.458;11.062;2024-02-23T12:00:30;99128.12;;;12.35;81.90
76808;BME280;65758;45.458;11.062;2024-02-23T12:02:58;99128.56;;;12.36;82.00
76808;BME280;65758;45.458;11.062;2024-02-23T12:05:25;99126.48;;;12.38;82.38
76808;BME280;65758;45.458;11.062;2024-02-23T12:07:52;99123.62;;;12.41;81.92
76808;BME280;65758;45.458;11.062;2024-02-23T12:10:20;99112.36;;;12.42;82.34
76808;BME280;65758;45.458;11.062;2024-02-23T12:12:47;99110.45;;;12.44;82.24
76808;BME280;65758;45.458;11.062;2024-02-23T12:15:14;99113.51;;;12.46;82.31
76808;BME280;65758;45.458;11.062;2024-02-23T12:17:48;99116.40;;;12.47;82.03
76808;BME280;65758;45.458;11.062;2024-02-23T12:20:15;99114.70;;;12.48;82.20
76808;BME280;65758;45.458;11.062;2024-02-23T12:22:43;99118.66;;;12.48;81.83
76808;BME280;65758;45.458;11.062;2024-02-23T12:25:12;99112.29;;;12.49;81.91
76808;BME280;65758;45.458;11.062;2024-02-23T12:27:39;99117.45;;;12.49;82.02
76808;BME280;65758;45.458;11.062;2024-02-23T12:30:13;99122.10;;;12.49;81.96
76808;BME280;65758;45.458;11.062;2024-02-23T12:32:41;99121.66;;;12.50;82.05
76808;BME280;65758;45.458;11.062;2024-02-23T12:35:10;99131.16;;;12.48;81.91
76808;BME280;65758;45.458;11.062;2024-02-23T12:37:39;99134.09;;;12.45;81.96
76808;BME280;65758;45.458;11.062;2024-02-23T12:40:11;99138.20;;;12.45;81.86
76808;BME280;65758;45.458;11.062;2024-02-23T12:42:38;99138.92;;;12.43;81.72
76808;BME280;65758;45.458;11.062;2024-02-23T12:45:05;99137.62;;;12.41;82.27
76808;BME280;65758;45.458;11.062;2024-02-23T12:47:33;99134.14;;;12.42;82.46
76808;BME280;65758;45.458;11.062;2024-02-23T12:50:00;99130.64;;;12.41;81.88
76808;BME280;65758;45.458;11.062;2024-02-23T12:52:27;99139.14;;;12.38;81.69
76808;BME280;65758;45.458;11.062;2024-02-23T12:54:54;99139.15;;;12.34;81.87